Oak Island, North Carolina
Current Conditions -  °F | °C
As of 1:35 AM on Thursday 23 Oct 2014 (Local Time) from KSUT Reporting Station
Clear Clear  
Wind Chill: 51°   Ceiling: Unl
Heat Index: 51°   Visibility: 10mi
Dew Point: 43°   Wind: 6mph
Humidity: 75%   Direction: 330°NNW
Pressure: 30.02"   Gusts: NA
Location:  33.92°N, 78.16°W
Report Text: KSUT 230535Z AUTO 33005KT 10SM CLR 10/06 A3002 RMK AO2 T01040061
Loading
Personal Weather Stations






























Interactive Weather Map New forecast layout! Learn more

10-Day Weather Forecast

Advertisements
Track Severe Weather on mobile